Miami, Florida
Traffic Map
Current Weather Conditions
Miami, Florida
Few Clouds
Few Clouds
75°
Feels Like: 75°
Wind Chill: 75° Ceiling: Unl
Heat Index: 75° Visibility: 10mi
Dew Point: 67° Wind: 18mph
Humidity: 76% Direction: 80° (E)
Pressure: 30.33in Gusts: 0mph
Raw Report DataKMIA 220053Z 08016KT 10SM FEW025 24/19 A3033 RMK AO2 SLP269 T02390194 $
Traffic Incident Summary
Active as of:
Severity:
Category:
InformationThere was an issue retrieving the traffic information for this location. Please try a different location or try again shortly.
Advertisements